Etusivu
METAR-TAF:

METAR-TAF

Lentoasemat :

Kuusamon lentoasema

Kuusamo, Suomi

Leveyspiiri: 65-58N, Pituuspiiri: 029-11E, korkeus merenpinnasta: 262 m

Tämänhetkinen sää

Tämä raportti tehtiin 39 minuuttia sitten, kello 02.50 UTC
Tuuli 10 kn lännestä/luoteesta
Lämpötila -2°C
Kosteus 86%
Ilmanpaine 1027 hPa
Näkyvyys 10 km tai enemmän
Muutamia pilviä 4000 ft:n korkeudessa

METAR: EFKS 210250Z AUTO 29010KT 9999 FEW040 M02/M04 Q1027

Aika: 05:29 (03:29 UTC)

Sääennuste

Tämä raportti tehtiin 19 tuntia ja 3 minuuttia sitten, kello 08.26 UTC
Ennuste voimassa 20. päivästä klo 09 UTC - 20. päivään klo 13 UTC
Tuuli 12 kn luoteesta
Näkyvyys 10 km tai enemmän
Muutamia pilviä 4000 ft:n korkeudessa
Todennäköisyys 30%
20. päivästä klo 09 UTC - 20. päivään klo 13 UTC
Tuuli 12 kn luoteesta puuskistuen 25 kn:hen

TAF: EFKS 200826Z 2009/2013 31012KT 9999 FEW040 PROB30 2009/2013 32012G25KT

Säähavainnot ja -ennusteet yli 4000 lentoasemalta (METAR- ja TAF-raportit).

Käytössä olevat sääasemat on merkitty karttaan keltaisilla ja punaisilla pisteillä.

Aseta hiiri pisteen päälle nähdäksesi sääaseman nimen.

Klikkaa sitten nähdäksesi säähavainnot ja -ennusteet.

Kartan vaihtaminen: klikkaa mustalla rastilla varustettuja vihreitä pisteitä, niin voit zoomata sisään; viivalla varustettua vihreää pistettä, niin voit zoomata ulos tai vihreitä nuolia, niin pääset viereisille kartoille.


METAR-TAF: